Time;durP1;ratioP1;P1;durP2;ratioP2;P2;SDS_P1;SDS_P2;PMS_P1;PMS_P2;Temp;Humidity;BMP_temperature;BMP_pressure;BME280_temperature;BME280_humidity;BME280_pressure;Samples;Min_cycle;Max_cycle;Signal;HPM_P1;HPM_P2
2023/05/21 00:02:14;;;;;;;29.98;14.57;;;;;;;15.07;100.00;94217.84;5098471;28;20496;-83
2023/05/21 00:04:40;;;;;;;30.33;14.02;;;;;;;15.30;100.00;94215.22;5098132;28;20142;-83
2023/05/21 00:07:07;;;;;;;23.58;13.88;;;;;;;15.70;100.00;94210.00;5081540;28;20348;-83
2023/05/21 00:09:33;;;;;;;23.48;13.77;;;;;;;15.49;100.00;94210.50;5098187;28;20118;-83
2023/05/21 00:11:59;;;;;;;24.05;14.10;;;;;;;15.41;100.00;94214.66;5098104;28;20027;-83
2023/05/21 00:14:24;;;;;;;22.13;12.60;;;;;;;15.65;100.00;94210.13;5097792;28;20034;-83
2023/05/21 00:16:49;;;;;;;26.13;13.07;;;;;;;15.11;100.00;94203.75;5080877;28;20352;-83
2023/05/21 00:19:15;;;;;;;35.33;15.38;;;;;;;14.87;100.00;94197.97;5098144;28;20371;-83
2023/05/21 00:21:40;;;;;;;25.80;14.00;;;;;;;15.23;100.00;94191.88;5097788;28;20027;-83
2023/05/21 00:24:06;;;;;;;29.95;16.30;;;;;;;14.93;100.00;94200.19;5115970;28;20020;-83
2023/05/21 00:26:31;;;;;;;37.10;15.38;;;;;;;15.06;100.00;94193.31;5098314;28;20028;-84
2023/05/21 00:28:57;;;;;;;34.88;16.15;;;;;;;15.04;100.00;94202.59;5080943;28;20118;-84
2023/05/21 00:31:22;;;;;;;35.60;17.63;;;;;;;15.01;100.00;94201.34;5116085;28;20168;-84
2023/05/21 00:33:47;;;;;;;32.13;15.50;;;;;;;14.96;100.00;94199.59;5097757;28;20036;-84
2023/05/21 00:36:13;;;;;;;40.72;16.35;;;;;;;15.03;100.00;94195.78;5097627;28;20027;-84
2023/05/21 00:38:42;;;;;;;37.80;17.38;;;;;;;15.18;100.00;94202.53;5115991;28;20030;-84
2023/05/21 00:41:11;;;;;;;33.65;16.90;;;;;;;15.41;100.00;94196.19;5097675;28;20219;-84
2023/05/21 00:43:40;;;;;;;23.73;13.77;;;;;;;15.53;100.00;94189.56;5097584;28;20077;-84
2023/05/21 00:46:07;;;;;;;37.25;16.10;;;;;;;15.21;100.00;94194.03;5115795;28;20031;-84
2023/05/21 00:48:32;;;;;;;29.48;15.00;;;;;;;15.18;100.00;94192.00;5097679;28;20032;-84
2023/05/21 00:50:58;;;;;;;24.83;14.35;;;;;;;15.21;100.00;94180.84;5097407;28;20329;-84
2023/05/21 00:53:23;;;;;;;25.00;13.50;;;;;;;15.39;100.00;94171.16;5115781;28;20035;-84
2023/05/21 00:55:49;;;;;;;24.77;13.05;;;;;;;15.45;100.00;94182.38;5115596;28;20634;-83
2023/05/21 00:58:16;;;;;;;28.73;14.73;;;;;;;15.45;100.00;94180.53;5097450;28;20089;-84
2023/05/21 01:00:42;;;;;;;21.42;12.88;;;;;;;15.30;100.00;94191.47;5097639;28;20023;-83
2023/05/21 01:03:08;;;;;;;20.20;11.95;;;;;;;15.23;100.00;94183.97;5097285;28;20027;-83
2023/05/21 01:05:34;;;;;;;32.00;13.57;;;;;;;15.10;100.00;94175.00;5097305;28;20027;-83
2023/05/21 01:08:00;;;;;;;25.42;13.15;;;;;;;15.18;100.00;94162.97;5097411;28;20496;-83
2023/05/21 01:10:26;;;;;;;28.27;13.73;;;;;;;15.03;100.00;94170.16;5080354;28;20118;-84
2023/05/21 01:12:54;;;;;;;29.30;14.02;;;;;;;15.06;100.00;94166.94;5080496;28;20028;-84
2023/05/21 01:15:19;;;;;;;55.72;14.00;;;;;;;15.07;100.00;94176.41;5102788;28;20019;-84
2023/05/21 01:17:48;;;;;;;32.90;14.68;;;;;;;14.95;100.00;94168.25;5119371;28;20333;-83
2023/05/21 01:20:18;;;;;;;23.00;13.25;;;;;;;15.21;100.00;94165.03;5119419;28;20027;-84
2023/05/21 01:22:54;;;;;;;33.60;14.60;;;;;;;15.33;100.00;94167.09;5102729;28;20057;-83
2023/05/21 01:25:22;;;;;;;42.80;17.13;;;;;;;14.96;100.00;94156.63;5118916;28;20050;-84
2023/05/21 01:27:58;;;;;;;33.78;17.33;;;;;;;15.21;100.00;94165.03;5096358;28;20022;-84
2023/05/21 01:30:24;;;;;;;35.33;17.95;;;;;;;14.92;100.00;94166.97;5108240;28;20032;-84
2023/05/21 01:33:06;;;;;;;33.75;15.73;;;;;;;15.37;100.00;94163.56;5115015;28;20032;-84
2023/05/21 01:35:38;;;;;;;30.35;16.83;;;;;;;15.36;100.00;94167.28;5102426;28;20046;-84
2023/05/21 01:38:13;;;;;;;26.25;15.52;;;;;;;15.48;100.00;94173.84;5104422;28;20031;-84
2023/05/21 01:40:40;;;;;;;32.53;15.80;;;;;;;15.37;100.00;94171.47;5084592;28;20027;-84
2023/05/21 01:43:07;;;;;;;31.45;16.05;;;;;;;15.60;100.00;94176.69;5094992;28;20023;-84
2023/05/21 01:45:34;;;;;;;23.35;13.98;;;;;;;15.62;100.00;94171.88;5102071;28;20053;-84
2023/05/21 01:47:59;;;;;;;28.30;14.70;;;;;;;15.50;100.00;94179.63;5119029;28;20023;-84
2023/05/21 01:50:25;;;;;;;35.33;15.13;;;;;;;15.17;100.00;94180.66;5119115;28;20080;-84
2023/05/21 01:52:59;;;;;;;38.05;16.75;;;;;;;14.84;100.00;94178.25;5102218;28;20058;-84
2023/05/21 01:55:25;;;;;;;36.97;17.40;;;;;;;14.86;100.00;94170.03;5102831;28;20027;-84
2023/05/21 01:57:54;;;;;;;43.42;17.77;;;;;;;14.98;100.00;94167.66;5102068;28;20336;-84
2023/05/21 02:00:21;;;;;;;30.27;15.27;;;;;;;15.38;100.00;94159.84;5118936;28;20337;-84
2023/05/21 02:02:47;;;;;;;29.20;15.80;;;;;;;15.26;100.00;94151.69;5118883;28;20027;-84
2023/05/21 02:05:13;;;;;;;182.15;20.15;;;;;;;15.26;100.00;94149.81;5118788;28;20034;-84
2023/05/21 02:07:39;;;;;;;29.17;15.77;;;;;;;14.83;100.00;94148.47;5118882;28;20492;-84
2023/05/21 02:10:05;;;;;;;25.23;13.73;;;;;;;15.15;100.00;94150.38;5100520;28;20309;-84
2023/05/21 02:12:30;;;;;;;37.33;14.65;;;;;;;15.21;100.00;94147.31;5118999;28;20072;-84
2023/05/21 02:14:56;;;;;;;28.73;16.25;;;;;;;15.09;100.00;94147.88;5118705;28;20114;-84
2023/05/21 02:17:23;;;;;;;33.35;17.15;;;;;;;15.17;100.00;94140.28;5137090;28;20027;-84
2023/05/21 02:19:48;;;;;;;32.40;16.48;;;;;;;15.36;100.00;94145.38;5136946;28;20034;-84
2023/05/21 02:22:14;;;;;;;31.25;14.77;;;;;;;15.32;100.00;94139.91;5119751;27;20027;-84
2023/05/21 02:24:39;;;;;;;33.53;13.90;;;;;;;15.40;100.00;94128.63;5105252;27;20242;-84
2023/05/21 02:27:05;;;;;;;29.02;14.88;;;;;;;15.51;100.00;94129.13;5122488;27;20026;-84
2023/05/21 02:29:31;;;;;;;25.10;14.40;;;;;;;15.58;100.00;94123.41;5140668;27;20019;-84
2023/05/21 02:31:57;;;;;;;31.33;15.35;;;;;;;15.46;100.00;94123.22;5122262;27;20344;-84
2023/05/21 02:34:23;;;;;;;36.85;18.23;;;;;;;15.43;100.00;94114.06;5140384;27;20027;-84
2023/05/21 02:36:51;;;;;;;34.13;15.40;;;;;;;15.51;100.00;94120.47;5140586;27;20080;-84
2023/05/21 02:39:18;;;;;;;31.85;14.88;;;;;;;15.54;100.00;94119.84;5140509;27;20027;-84
2023/05/21 02:41:44;;;;;;;27.08;14.27;;;;;;;15.64;100.00;94114.28;5140389;27;20106;-84
2023/05/21 02:44:10;;;;;;;26.38;14.20;;;;;;;15.37;100.00;94123.97;5105176;27;20507;-84
2023/05/21 02:46:35;;;;;;;27.33;15.48;;;;;;;15.35;100.00;94120.06;5121923;27;20031;-84
2023/05/21 02:49:01;;;;;;;27.05;13.73;;;;;;;15.59;100.00;94121.56;5122136;27;20058;-84
2023/05/21 02:51:26;;;;;;;24.52;14.63;;;;;;;15.58;100.00;94110.22;5138790;27;20027;-84
2023/05/21 02:53:51;;;;;;;27.10;13.95;;;;;;;15.60;100.00;94113.34;5120033;27;20031;-84
2023/05/21 02:56:17;;;;;;;24.95;14.50;;;;;;;15.53;100.00;94116.41;5138338;27;20031;-84
2023/05/21 02:58:42;;;;;;;24.00;13.82;;;;;;;15.53;100.00;94115.66;5101573;27;20087;-83
2023/05/21 03:01:08;;;;;;;25.48;14.40;;;;;;;15.46;100.00;94102.88;5107327;28;20035;-84
2023/05/21 03:03:33;;;;;;;26.35;15.15;;;;;;;14.94;100.00;94111.31;5107166;27;20027;-83
2023/05/21 03:06:01;;;;;;;29.00;16.55;;;;;;;15.16;100.00;94120.25;5113010;28;20031;-83
2023/05/21 03:08:27;;;;;;;33.72;16.88;;;;;;;14.74;100.00;94117.84;5123886;27;20148;-84
2023/05/21 03:10:52;;;;;;;36.05;17.02;;;;;;;15.05;100.00;94115.22;5106408;27;20339;-84
2023/05/21 03:13:18;;;;;;;27.63;16.20;;;;;;;15.18;100.00;94110.19;5139295;27;20436;-84
2023/05/21 03:15:45;;;;;;;30.05;16.88;;;;;;;15.28;100.00;94112.56;5121252;27;20023;-83
2023/05/21 03:18:10;;;;;;;33.42;17.02;;;;;;;15.17;100.00;94116.53;5104616;27;20444;-83
2023/05/21 03:20:42;;;;;;;30.08;15.77;;;;;;;15.09;100.00;94104.84;5121277;27;20038;-84
2023/05/21 03:23:07;;;;;;;29.17;16.20;;;;;;;15.22;100.00;94119.06;5122172;27;20053;-83
2023/05/21 03:25:33;;;;;;;30.98;16.65;;;;;;;15.24;100.00;94114.28;5121135;27;20344;-84
2023/05/21 03:27:58;;;;;;;27.75;16.30;;;;;;;15.32;100.00;94118.03;5119416;27;20031;-83
2023/05/21 03:30:24;;;;;;;26.02;14.52;;;;;;;15.52;100.00;94122.00;5121188;27;20027;-83
2023/05/21 03:32:50;;;;;;;22.40;13.23;;;;;;;15.54;100.00;94117.97;5104017;27;20332;-83
2023/05/21 03:35:15;;;;;;;28.30;13.88;;;;;;;15.62;100.00;94124.38;5121008;27;20388;-83
2023/05/21 03:37:41;;;;;;;24.58;13.32;;;;;;;15.63;100.00;94112.72;5139257;27;20031;-83
2023/05/21 03:40:07;;;;;;;25.85;14.00;;;;;;;15.27;100.00;94119.69;5139312;27;20381;-83
2023/05/21 03:42:32;;;;;;;21.95;13.10;;;;;;;15.34;100.00;94111.34;5120904;27;20026;-83
2023/05/21 03:44:57;;;;;;;25.45;13.63;;;;;;;15.45;100.00;94111.09;5103954;27;20027;-83
2023/05/21 03:47:23;;;;;;;34.15;15.57;;;;;;;14.91;100.00;94109.25;5120702;27;20034;-83
2023/05/21 03:49:48;;;;;;;23.05;14.27;;;;;;;15.31;100.00;94111.97;5120802;27;20440;-83
2023/05/21 03:52:14;;;;;;;26.13;14.05;;;;;;;15.53;100.00;94118.28;5139062;27;20030;-83
2023/05/21 03:54:39;;;;;;;25.40;14.95;;;;;;;15.62;100.00;94113.81;5138907;27;20031;-83
2023/05/21 03:57:05;;;;;;;26.33;15.13;;;;;;;15.41;100.00;94108.28;5103886;27;20122;-83
2023/05/21 03:59:30;;;;;;;28.85;16.55;;;;;;;15.36;100.00;94106.56;5120552;27;20023;-83
2023/05/21 04:01:55;;;;;;;30.17;16.17;;;;;;;15.65;100.00;94101.84;5120626;27;20329;-83
2023/05/21 04:04:21;;;;;;;28.13;15.70;;;;;;;15.45;100.00;94114.53;5103884;27;20023;-83
2023/05/21 04:06:47;;;;;;;27.65;14.80;;;;;;;15.74;100.00;94109.81;5120390;27;20031;-84
2023/05/21 04:09:12;;;;;;;32.75;15.82;;;;;;;15.57;100.00;94111.31;5103314;27;20065;-83
2023/05/21 04:11:38;;;;;;;24.65;14.48;;;;;;;15.76;100.00;94115.56;5103602;27;20420;-83
2023/05/21 04:14:03;;;;;;;24.40;13.63;;;;;;;15.83;100.00;94116.66;5120171;27;20034;-83
2023/05/21 04:16:28;;;;;;;20.75;12.50;;;;;;;15.98;100.00;94117.34;5120163;27;20034;-83
2023/05/21 04:18:54;;;;;;;22.88;12.98;;;;;;;15.91;100.00;94122.31;5120171;27;20033;-83
2023/05/21 04:21:20;;;;;;;23.75;13.60;;;;;;;15.97;100.00;94124.53;5138520;27;20141;-83
2023/05/21 04:23:45;;;;;;;23.73;13.05;;;;;;;15.97;100.00;94124.53;5120275;27;20019;-83
2023/05/21 04:26:11;;;;;;;25.23;13.10;;;;;;;16.10;100.00;94124.72;5119929;27;20130;-84
2023/05/21 04:28:40;;;;;;;25.83;15.13;;;;;;;15.77;100.00;94125.03;5120086;27;20522;-83
2023/05/21 04:31:07;;;;;;;31.20;17.25;;;;;;;15.55;100.00;94127.44;5120114;27;20042;-84
2023/05/21 04:33:34;;;;;;;28.45;16.25;;;;;;;15.56;100.00;94133.50;5102899;27;20023;-83
2023/05/21 04:36:00;;;;;;;29.42;16.13;;;;;;;15.73;100.00;94132.81;5120110;27;20023;-84
2023/05/21 04:38:25;;;;;;;29.45;15.13;;;;;;;16.01;100.00;94132.63;5119851;27;20160;-84
2023/05/21 04:40:51;;;;;;;33.00;15.55;;;;;;;15.90;100.00;94137.38;5119969;27;20027;-83
2023/05/21 04:43:17;;;;;;;22.67;14.07;;;;;;;16.18;100.00;94142.44;5119699;27;20030;-83
2023/05/21 04:45:42;;;;;;;28.73;15.52;;;;;;;15.71;100.00;94139.47;5119011;27;20126;-83
2023/05/21 04:48:08;;;;;;;26.95;15.00;;;;;;;16.04;100.00;94142.56;5119632;27;20031;-83
2023/05/21 04:50:34;;;;;;;25.48;14.55;;;;;;;16.05;100.00;94145.97;5119610;27;20060;-83
2023/05/21 04:52:59;;;;;;;22.73;13.15;;;;;;;16.21;100.00;94146.34;5119551;27;20027;-83
2023/05/21 04:55:26;;;;;;;23.75;13.88;;;;;;;16.35;100.00;94152.25;5102715;27;20348;-83
2023/05/21 04:57:52;;;;;;;27.67;14.23;;;;;;;16.37;100.00;94149.31;5102622;27;20027;-83
2023/05/21 05:00:17;;;;;;;24.63;14.13;;;;;;;16.48;100.00;94145.28;5119731;27;20344;-84
2023/05/21 05:02:42;;;;;;;25.55;13.63;;;;;;;16.63;100.00;94145.91;5119448;27;20027;-83
2023/05/21 05:05:08;;;;;;;29.88;15.38;;;;;;;16.75;100.00;94145.31;5102527;27;20501;-84
2023/05/21 05:07:33;;;;;;;31.08;16.35;;;;;;;16.07;100.00;94141.19;5119416;27;20066;-84
2023/05/21 05:09:59;;;;;;;33.58;16.40;;;;;;;16.50;100.00;94143.13;5119392;28;20432;-84
2023/05/21 05:12:25;;;;;;;26.60;15.15;;;;;;;16.76;100.00;94142.31;5119525;28;20081;-84
2023/05/21 05:14:50;;;;;;;27.17;15.82;;;;;;;16.92;100.00;94137.34;5102454;28;20034;-84
2023/05/21 05:17:15;;;;;;;26.48;14.57;;;;;;;16.91;100.00;94143.72;5119636;28;20489;-84
2023/05/21 05:19:41;;;;;;;30.83;16.60;;;;;;;17.24;100.00;94147.78;5119567;28;20019;-84
2023/05/21 05:22:06;;;;;;;29.48;15.85;;;;;;;17.28;100.00;94143.41;5119342;28;20033;-84
2023/05/21 05:24:32;;;;;;;27.77;17.02;;;;;;;17.28;100.00;94142.59;5119140;28;20059;-84
2023/05/21 05:26:57;;;;;;;32.03;18.17;;;;;;;17.31;100.00;94145.41;5102449;28;20515;-84
2023/05/21 05:29:23;;;;;;;28.75;15.27;;;;;;;17.46;100.00;94151.28;5102358;28;20031;-84
2023/05/21 05:31:48;;;;;;;30.25;16.67;;;;;;;17.32;100.00;94157.56;5119140;28;20019;-84
2023/05/21 05:34:13;;;;;;;29.75;16.75;;;;;;;16.81;100.00;94149.34;5119326;28;20083;-84
2023/05/21 05:36:39;;;;;;;32.97;16.67;;;;;;;16.93;100.00;94148.72;5119219;28;20446;-84
2023/05/21 05:39:04;;;;;;;29.90;18.02;;;;;;;16.71;100.00;94149.63;5119211;28;20027;-84
2023/05/21 05:41:30;;;;;;;31.77;17.92;;;;;;;16.83;100.00;94152.44;5102217;28;20023;-84
2023/05/21 05:43:55;;;;;;;34.33;17.98;;;;;;;16.66;100.00;94145.31;5119157;28;20027;-84
2023/05/21 05:46:21;;;;;;;34.30;16.02;;;;;;;17.20;100.00;94146.81;5137176;28;20031;-84
2023/05/21 05:48:46;;;;;;;24.67;13.65;;;;;;;17.43;100.00;94149.28;5119128;28;20019;-84
2023/05/21 05:51:11;;;;;;;23.75;13.63;;;;;;;17.37;100.00;94140.72;5137236;28;20027;-84
2023/05/21 05:53:37;;;;;;;25.05;13.05;;;;;;;17.55;100.00;94146.75;5137244;28;20030;-84
2023/05/21 05:56:03;;;;;;;23.63;14.98;;;;;;;16.82;100.00;94148.25;5102053;28;20027;-84
2023/05/21 05:58:31;;;;;;;30.10;15.10;;;;;;;17.87;100.00;94144.59;5105078;27;20034;-84
2023/05/21 06:00:57;;;;;;;22.33;14.13;;;;;;;18.11;100.00;94137.19;5122979;27;20466;-84
2023/05/21 06:03:22;;;;;;;21.92;13.00;;;;;;;17.70;100.00;94142.03;5122856;27;20023;-84
2023/05/21 06:05:48;;;;;;;25.20;13.38;;;;;;;18.54;100.00;94136.13;5121414;27;20027;-83
2023/05/21 06:08:14;;;;;;;24.60;12.23;;;;;;;18.78;100.00;94140.03;5109827;27;20343;-83
2023/05/21 06:10:40;;;;;;;24.55;13.30;;;;;;;19.01;100.00;94132.50;5133836;27;20031;-83
2023/05/21 06:13:05;;;;;;;22.42;12.55;;;;;;;19.06;100.00;94137.59;5138413;27;20042;-83
2023/05/21 06:15:30;;;;;;;21.98;12.60;;;;;;;18.98;100.00;94149.06;5133132;27;20023;-83
2023/05/21 06:17:56;;;;;;;22.10;12.85;;;;;;;18.07;100.00;94139.69;5102067;28;20043;-83
2023/05/21 06:20:21;;;;;;;32.20;17.58;;;;;;;17.86;100.00;94142.25;5102110;28;20035;-84
2023/05/21 06:22:47;;;;;;;24.20;13.98;;;;;;;17.70;100.00;94140.16;5120236;28;20031;-83
2023/05/21 06:25:13;;;;;;;24.85;12.75;;;;;;;18.61;100.00;94140.94;5124168;27;20029;-83
2023/05/21 06:27:38;;;;;;;19.58;12.05;;;;;;;18.73;100.00;94142.88;5109222;27;20122;-82
2023/05/21 06:30:04;;;;;;;24.42;13.20;;;;;;;18.67;100.00;94149.47;5105245;27;20130;-82
2023/05/21 06:32:30;;;;;;;22.65;11.82;;;;;;;18.83;100.00;94145.13;5105454;27;20035;-82
2023/05/21 06:34:55;;;;;;;22.33;12.05;;;;;;;18.47;100.00;94144.59;5105870;27;20031;-82
2023/05/21 06:37:21;;;;;;;24.17;12.35;;;;;;;19.32;100.00;94149.09;5122247;27;20023;-83
2023/05/21 06:39:46;;;;;;;20.58;11.27;;;;;;;19.63;100.00;94140.63;5140391;27;20027;-83
2023/05/21 06:42:12;;;;;;;23.17;10.95;;;;;;;19.74;100.00;94148.97;5122064;27;20062;-83
2023/05/21 06:44:37;;;;;;;18.65;12.13;;;;;;;18.89;100.00;94148.34;5140285;27;20026;-83
2023/05/21 06:47:02;;;;;;;24.27;12.77;;;;;;;19.31;100.00;94148.31;5105044;27;20118;-82
2023/05/21 06:49:28;;;;;;;31.50;17.98;;;;;;;19.39;100.00;94153.88;5121746;27;20059;-83
2023/05/21 06:51:53;;;;;;;32.20;15.30;;;;;;;19.03;100.00;94143.56;5116016;27;20023;-83
2023/05/21 06:54:19;;;;;;;30.48;17.85;;;;;;;19.32;100.00;94146.44;5110403;27;20088;-83
2023/05/21 06:56:44;;;;;;;31.65;18.70;;;;;;;19.49;100.00;94151.56;5105102;27;20030;-83
2023/05/21 06:59:10;;;;;;;35.10;19.92;;;;;;;18.03;100.00;94139.59;5119754;27;20076;-81
2023/05/21 07:01:35;;;;;;;34.63;20.38;;;;;;;18.29;100.00;94141.31;5121630;27;20753;-81
2023/05/21 07:04:00;;;;;;;32.15;19.52;;;;;;;19.11;100.00;94149.16;5139765;27;20046;-83
2023/05/21 07:06:26;;;;;;;34.60;20.30;;;;;;;19.23;100.00;94145.75;5121618;27;20030;-83
2023/05/21 07:08:51;;;;;;;37.15;21.27;;;;;;;18.76;100.00;94148.28;5139249;27;20431;-83
2023/05/21 07:11:16;;;;;;;31.13;18.30;;;;;;;19.39;100.00;94151.22;5121585;27;20027;-83
2023/05/21 07:13:42;;;;;;;32.83;16.65;;;;;;;18.87;100.00;94155.88;5121154;27;20027;-83
2023/05/21 07:16:07;;;;;;;24.20;14.13;;;;;;;19.55;100.00;94154.00;5104387;27;20031;-83
2023/05/21 07:18:33;;;;;;;27.00;15.15;;;;;;;19.90;100.00;94154.38;5119752;27;20027;-83
2023/05/21 07:20:58;;;;;;;32.40;16.77;;;;;;;19.61;100.00;94160.69;5100975;28;20038;-83
2023/05/21 07:23:24;;;;;;;33.42;18.38;;;;;;;19.06;100.00;94158.09;5118877;27;20035;-84
2023/05/21 07:25:49;;;;;;;27.70;15.85;;;;;;;19.52;100.00;94162.66;5085438;27;20028;-84
2023/05/21 07:28:14;;;;;;;32.22;17.35;;;;;;;19.56;100.00;94155.56;5138567;27;20073;-83
2023/05/21 07:30:40;;;;;;;29.85;16.90;;;;;;;18.78;100.00;94154.06;5121209;27;20420;-84
2023/05/21 07:33:05;;;;;;;29.17;17.48;;;;;;;19.72;100.00;94150.38;5121004;27;20035;-84
2023/05/21 07:35:31;;;;;;;32.42;17.63;;;;;;;19.81;100.00;94151.06;5121219;27;20030;-84
2023/05/21 07:37:56;;;;;;;33.83;18.33;;;;;;;19.80;100.00;94149.53;5139194;27;20038;-84
2023/05/21 07:40:25;;;;;;;30.85;17.60;;;;;;;20.36;100.00;94155.41;5120917;27;20126;-84
2023/05/21 07:42:51;;;;;;;32.42;18.55;;;;;;;19.25;100.00;94162.13;5120946;27;20348;-84
2023/05/21 07:45:16;;;;;;;31.80;19.35;;;;;;;19.10;100.00;94168.84;5120660;27;20073;-84
2023/05/21 07:47:41;;;;;;;30.52;18.80;;;;;;;19.56;100.00;94174.16;5120930;27;20027;-84
2023/05/21 07:50:07;;;;;;;30.40;18.55;;;;;;;19.60;100.00;94173.19;5139126;27;20031;-84
2023/05/21 07:52:32;;;;;;;31.73;17.85;;;;;;;20.28;100.00;94176.47;5120735;27;20027;-84
2023/05/21 07:54:59;;;;;;;33.03;17.55;;;;;;;20.22;100.00;94177.00;5120479;27;20066;-84
2023/05/21 07:57:25;;;;;;;34.45;18.63;;;;;;;20.64;100.00;94171.41;5120716;27;20066;-84
2023/05/21 07:59:50;;;;;;;33.15;18.80;;;;;;;19.82;100.00;94181.88;5120513;27;20057;-84
2023/05/21 08:02:15;;;;;;;29.77;17.85;;;;;;;20.63;100.00;94185.84;5138937;27;20466;-84
2023/05/21 08:04:41;;;;;;;30.00;17.55;;;;;;;20.53;100.00;94194.31;5138278;27;20023;-84
2023/05/21 08:07:08;;;;;;;33.03;19.02;;;;;;;20.61;100.00;94182.75;5138695;27;20031;-84
2023/05/21 08:09:33;;;;;;;33.60;18.45;;;;;;;20.76;100.00;94186.59;5103784;27;20031;-84
2023/05/21 08:11:59;;;;;;;38.15;19.17;;;;;;;20.70;100.00;94183.41;5120350;27;20026;-84
2023/05/21 08:14:24;;;;;;;32.10;19.70;;;;;;;21.06;100.00;94178.34;5120073;27;20035;-84
2023/05/21 08:16:50;;;;;;;34.63;20.85;;;;;;;20.79;100.00;94183.25;5103429;27;20038;-84
2023/05/21 08:19:15;;;;;;;35.60;19.63;;;;;;;20.87;100.00;94178.94;5119943;28;20034;-84
2023/05/21 08:21:41;;;;;;;29.98;18.83;;;;;;;21.48;100.00;94177.13;5119690;27;20035;-84
2023/05/21 08:24:06;;;;;;;33.28;19.17;;;;;;;21.53;100.00;94178.78;5103193;27;20436;-83
2023/05/21 08:26:33;;;;;;;31.55;19.55;;;;;;;21.47;100.00;94181.72;5120974;27;20051;-83
2023/05/21 08:28:58;;;;;;;32.90;20.17;;;;;;;21.30;100.00;94182.00;5124452;27;20444;-83
2023/05/21 08:31:24;;;;;;;27.42;17.48;;;;;;;22.29;100.00;94180.63;5116405;28;20437;-83
2023/05/21 08:33:51;;;;;;;30.92;18.20;;;;;;;21.99;100.00;94181.09;5117294;28;20104;-84
2023/05/21 08:36:17;;;;;;;29.42;18.27;;;;;;;21.30;100.00;94172.13;5116294;28;20032;-84
2023/05/21 08:38:42;;;;;;;32.60;19.65;;;;;;;21.78;100.00;94176.78;5116461;28;20055;-84
2023/05/21 08:41:10;;;;;;;34.05;19.15;;;;;;;22.45;100.00;94178.72;5116443;28;20031;-83
2023/05/21 08:43:36;;;;;;;29.27;18.83;;;;;;;23.03;100.00;94179.16;5116830;28;20034;-84
2023/05/21 08:46:02;;;;;;;27.45;18.15;;;;;;;23.38;98.71;94182.88;5099395;28;20031;-84
2023/05/21 08:48:30;;;;;;;27.90;17.10;;;;;;;23.65;91.56;94188.31;5099418;28;20031;-84
2023/05/21 08:50:55;;;;;;;32.05;18.55;;;;;;;23.09;97.93;94187.66;5116370;28;20031;-84
2023/05/21 08:53:26;;;;;;;29.23;18.10;;;;;;;22.84;100.00;94193.28;5114107;28;20031;-84
2023/05/21 08:55:52;;;;;;;26.88;17.45;;;;;;;23.13;92.96;94183.16;5097847;28;20027;-84
2023/05/21 08:58:18;;;;;;;29.10;17.58;;;;;;;23.52;90.53;94180.47;5114185;28;20031;-84
2023/05/21 09:00:44;;;;;;;26.40;15.77;;;;;;;24.67;86.41;94182.66;5114926;28;20027;-83
2023/05/21 09:03:11;;;;;;;26.38;16.90;;;;;;;25.02;84.00;94183.50;5099283;28;20027;-84
2023/05/21 09:05:43;;;;;;;30.52;16.85;;;;;;;24.20;80.48;94187.34;5116027;28;20031;-84
2023/05/21 09:08:19;;;;;;;26.08;16.98;;;;;;;22.65;100.00;94192.13;5116067;28;20115;-84
2023/05/21 09:10:49;;;;;;;24.55;16.48;;;;;;;23.48;100.00;94182.31;5099258;28;20027;-84
2023/05/21 09:13:16;;;;;;;32.20;17.48;;;;;;;23.85;94.02;94184.50;5115957;28;20124;-84
2023/05/21 09:15:41;;;;;;;28.45;19.42;;;;;;;22.21;99.81;94189.59;5115880;28;20023;-84
2023/05/21 09:18:07;;;;;;;29.77;18.13;;;;;;;22.25;99.92;94188.56;5115981;28;20030;-84
2023/05/21 09:20:32;;;;;;;28.23;17.35;;;;;;;22.63;97.70;94189.03;5115915;28;20027;-84
2023/05/21 09:23:02;;;;;;;32.40;18.65;;;;;;;23.86;83.78;94183.34;5115743;28;20035;-84
2023/05/21 09:25:28;;;;;;;25.48;16.95;;;;;;;23.03;96.85;94187.19;5098961;28;20036;-84
2023/05/21 09:27:57;;;;;;;31.48;18.55;;;;;;;22.14;100.00;94193.66;5117054;28;20038;-84
2023/05/21 09:30:23;;;;;;;29.08;18.67;;;;;;;22.04;100.00;94186.16;5115949;28;20070;-84
2023/05/21 09:32:56;;;;;;;29.63;20.02;;;;;;;22.50;100.00;94195.59;5119573;28;20578;-84
2023/05/21 09:35:21;;;;;;;;;;;;;;;22.91;98.20;94193.41;5104024;28;20077;-84
2023/05/21 09:37:49;;;;;;;31.05;19.10;;;;;;;21.17;100.00;94192.72;5103039;28;19912;-84
2023/05/21 09:40:15;;;;;;;31.10;18.40;;;;;;;22.13;100.00;94199.31;5103258;28;20116;-84
2023/05/21 09:42:44;;;;;;;27.27;16.98;;;;;;;22.99;99.32;94189.00;5120074;28;20457;-84
2023/05/21 09:45:10;;;;;;;28.05;18.42;;;;;;;22.85;97.65;94194.81;5120759;28;20034;-84
2023/05/21 09:47:42;;;;;;;29.55;18.10;;;;;;;23.31;99.71;94191.53;5119829;28;20023;-84
2023/05/21 09:50:28;;;;;;;32.08;17.83;;;;;;;23.15;99.84;94191.59;5119935;28;20139;-84
2023/05/21 09:52:54;;;;;;;27.42;17.23;;;;;;;24.27;90.57;94190.13;5102219;28;20039;-83
2023/05/21 09:55:24;;;;;;;27.60;18.30;;;;;;;22.94;96.35;94191.94;5119573;28;20034;-84
2023/05/21 09:57:50;;;;;;;29.60;17.17;;;;;;;24.18;95.23;94192.28;5119626;28;20118;-84
2023/05/21 10:00:26;;;;;;;29.40;17.42;;;;;;;23.70;93.48;94198.75;5119567;28;20027;-84
2023/05/21 10:03:01;;;;;;;41.58;20.63;;;;;;;22.86;94.56;94201.72;5102962;28;20062;-84
2023/05/21 10:05:27;;;;;;;32.35;21.02;;;;;;;23.64;94.91;94190.25;5119367;28;20450;-84
2023/05/21 10:08:03;;;;;;;31.00;17.40;;;;;;;24.41;87.97;94189.56;5102561;28;20345;-84
2023/05/21 10:10:30;;;;;;;28.45;17.63;;;;;;;25.18;76.61;94197.47;5119461;28;20040;-84
2023/05/21 10:13:07;;;;;;;25.42;16.30;;;;;;;25.38;75.06;94191.94;5119312;28;20031;-84
2023/05/21 10:15:56;;;;;;;25.60;16.45;;;;;;;24.34;86.80;94192.91;5102343;28;20040;-84
2023/05/21 10:18:22;;;;;;;27.48;17.23;;;;;;;23.54;92.45;94191.59;5119378;28;20019;-84
2023/05/21 10:20:47;;;;;;;32.38;17.77;;;;;;;23.69;91.56;94197.22;5119205;28;20027;-84
2023/05/21 10:23:13;;;;;;;29.75;18.55;;;;;;;24.04;93.11;94198.19;5119102;28;20019;-84
2023/05/21 10:25:38;;;;;;;25.92;15.82;;;;;;;24.79;87.03;94198.53;5118885;28;20033;-81
2023/05/21 10:28:05;;;;;;;25.20;16.38;;;;;;;25.04;83.73;94192.75;5118931;28;20096;-81
2023/05/21 10:30:31;;;;;;;29.77;17.75;;;;;;;23.71;84.05;94193.03;5102036;28;20348;-81
2023/05/21 10:32:57;;;;;;;27.17;16.05;;;;;;;24.79;83.41;94190.50;5120109;28;20040;-82
2023/05/21 10:35:23;;;;;;;24.98;16.73;;;;;;;24.10;87.17;94186.84;5101900;28;20035;-82
2023/05/21 10:37:50;;;;;;;21.67;14.90;;;;;;;24.65;84.80;94190.28;5118884;28;20038;-82
2023/05/21 10:40:15;;;;;;;23.70;14.60;;;;;;;24.63;90.16;94196.00;5118833;28;20348;-82
2023/05/21 10:43:04;;;;;;;25.35;15.88;;;;;;;24.76;91.65;94185.88;5117525;28;20028;-81
2023/05/21 10:45:51;;;;;;;32.45;16.45;;;;;;;25.57;84.20;94198.31;5129223;27;20483;-81
2023/05/21 10:48:22;;;;;;;19.98;13.70;;;;;;;26.47;72.60;94195.63;5140584;27;20027;-81
2023/05/21 10:51:02;;;;;;;19.35;13.57;;;;;;;26.93;69.96;94192.47;5121473;27;20053;-82
2023/05/21 10:53:37;;;;;;;23.20;14.25;;;;;;;25.62;68.62;94192.59;5113760;28;20084;-82
2023/05/21 10:56:27;;;;;;;34.38;15.38;;;;;;;25.10;79.18;94193.16;5120012;27;20038;-83
2023/05/21 10:59:20;;;;;;;23.30;14.90;;;;;;;25.53;74.59;94199.03;5102898;27;20046;-82
2023/05/21 11:01:47;;;;;;;22.90;14.48;;;;;;;24.63;80.79;94197.91;5140346;27;20023;-82
2023/05/21 11:04:14;;;;;;;25.33;14.55;;;;;;;23.80;81.73;94189.38;5116833;27;20019;-85
2023/05/21 11:06:46;;;;;;;27.98;15.85;;;;;;;23.27;88.87;94194.16;5125200;27;20134;-85
2023/05/21 11:09:12;;;;;;;27.30;15.98;;;;;;;23.01;97.82;94190.19;5142358;27;20347;-85
2023/05/21 11:11:47;;;;;;;29.92;16.30;;;;;;;22.98;100.00;94196.25;5142246;27;20718;-85